createdAt,value
2019-03-29T00:02:18.995Z,101.80
2019-03-29T00:04:48.742Z,104.12
2019-03-29T00:07:19.303Z,105.78
2019-03-29T00:09:49.039Z,106.70
2019-03-29T00:12:18.828Z,107.05
2019-03-29T00:14:48.569Z,97.65
2019-03-29T00:17:18.352Z,107.80
2019-03-29T00:19:48.052Z,98.17
2019-03-29T00:22:17.853Z,96.28
2019-03-29T00:24:47.577Z,100.03
2019-03-29T00:27:17.322Z,91.40
2019-03-29T00:29:47.067Z,95.10
2019-03-29T00:32:16.802Z,91.45
2019-03-29T00:34:46.670Z,91.40
2019-03-29T00:37:16.394Z,88.50
2019-03-29T00:39:46.190Z,95.77
2019-03-29T00:42:17.015Z,86.28
2019-03-29T00:44:47.887Z,91.02
2019-03-29T00:47:17.623Z,87.57
2019-03-29T00:49:47.364Z,92.57
2019-03-29T00:52:17.136Z,88.47
2019-03-29T00:54:47.250Z,82.05
2019-03-29T00:57:17.040Z,86.55
2019-03-29T00:59:46.758Z,85.03
2019-03-29T01:02:16.498Z,79.55
2019-03-29T01:04:46.252Z,79.45
2019-03-29T01:07:15.986Z,81.00
2019-03-29T01:09:46.910Z,73.10
2019-03-29T01:12:16.592Z,72.05
2019-03-29T01:14:46.340Z,74.87
2019-03-29T01:17:16.970Z,77.80
2019-03-29T01:19:46.739Z,75.78
2019-03-29T01:22:16.481Z,72.70
2019-03-29T01:24:46.267Z,70.47
2019-03-29T01:27:16.002Z,67.80
2019-03-29T01:29:45.729Z,61.23
2019-03-29T01:32:15.484Z,64.12
2019-03-29T01:34:45.241Z,63.55
2019-03-29T01:37:15.035Z,59.70
2019-03-29T01:39:44.767Z,56.43
2019-03-29T01:42:14.509Z,56.33
2019-03-29T01:44:44.242Z,64.50
2019-03-29T01:47:13.974Z,56.68
2019-03-29T01:49:43.741Z,59.42
2019-03-29T01:52:13.472Z,59.88
2019-03-29T01:54:43.255Z,55.98
2019-03-29T01:57:12.996Z,53.78
2019-03-29T01:59:42.987Z,63.37
2019-03-29T02:02:12.768Z,60.95
2019-03-29T02:04:42.514Z,57.33
2019-03-29T02:07:12.307Z,63.28
2019-03-29T02:09:42.075Z,60.93
2019-03-29T02:12:11.850Z,65.28
2019-03-29T02:14:41.595Z,68.10
2019-03-29T02:17:11.350Z,62.33
2019-03-29T02:19:41.486Z,66.67
2019-03-29T02:22:11.216Z,69.32
2019-03-29T02:24:40.994Z,68.60
2019-03-29T02:27:10.879Z,76.07
2019-03-29T02:29:40.615Z,81.02
2019-03-29T02:32:10.357Z,80.60
2019-03-29T02:34:40.132Z,87.60
2019-03-29T02:37:09.878Z,98.50
2019-03-29T02:39:39.621Z,114.85
2019-03-29T02:42:09.405Z,124.25
2019-03-29T02:44:39.142Z,134.55
2019-03-29T02:47:08.925Z,135.25
2019-03-29T02:49:40.316Z,131.22
2019-03-29T02:52:10.279Z,112.75
2019-03-29T02:54:40.008Z,96.80
2019-03-29T02:57:09.746Z,76.28
2019-03-29T02:59:39.491Z,77.78
2019-03-29T03:02:09.230Z,87.15
2019-03-29T03:04:39.026Z,93.07
2019-03-29T03:07:08.767Z,98.60
2019-03-29T03:09:38.520Z,108.75
2019-03-29T03:12:08.302Z,110.68
2019-03-29T03:14:38.023Z,102.20
2019-03-29T03:17:07.787Z,120.60
2019-03-29T03:19:37.525Z,123.33
2019-03-29T03:22:07.276Z,118.85
2019-03-29T03:24:37.020Z,109.32
2019-03-29T03:27:07.798Z,113.88
2019-03-29T03:29:37.547Z,121.50
2019-03-29T03:32:07.310Z,121.28
2019-03-29T03:34:37.073Z,117.03
2019-03-29T03:37:06.827Z,122.80
2019-03-29T03:39:36.579Z,119.93
2019-03-29T03:42:06.618Z,115.97
2019-03-29T03:44:36.416Z,117.42
2019-03-29T03:47:06.153Z,117.33
2019-03-29T03:49:35.932Z,115.85
2019-03-29T03:52:06.668Z,114.95
2019-03-29T03:54:37.379Z,110.60
2019-03-29T03:57:07.106Z,117.87
2019-03-29T03:59:37.381Z,113.42
2019-03-29T04:02:07.128Z,111.92
2019-03-29T04:04:37.894Z,107.07
2019-03-29T04:07:07.950Z,107.65
2019-03-29T04:09:49.419Z,106.87
2019-03-29T04:12:09.864Z,108.90
2019-03-29T04:14:39.668Z,116.03
2019-03-29T04:17:09.397Z,114.62
2019-03-29T04:19:39.184Z,110.22
2019-03-29T04:22:09.922Z,103.42
2019-03-29T04:24:39.712Z,106.20
2019-03-29T04:27:10.443Z,105.12
2019-03-29T04:29:40.220Z,108.67
2019-03-29T04:32:09.975Z,107.72
2019-03-29T04:34:39.711Z,107.70
2019-03-29T04:37:09.460Z,113.13
2019-03-29T04:39:39.198Z,116.73
2019-03-29T04:42:08.981Z,111.97
2019-03-29T04:44:38.723Z,116.93
2019-03-29T04:47:08.458Z,109.57
2019-03-29T04:49:38.194Z,109.67
2019-03-29T04:52:07.967Z,115.52
2019-03-29T04:54:37.717Z,114.95
2019-03-29T04:57:07.462Z,119.50
2019-03-29T04:59:37.217Z,110.97
2019-03-29T05:02:06.950Z,110.97
2019-03-29T05:04:36.847Z,108.72
2019-03-29T05:07:06.579Z,111.93
2019-03-29T05:09:36.335Z,116.00
2019-03-29T05:12:12.614Z,114.52
2019-03-29T05:14:42.394Z,105.63
2019-03-29T05:17:12.147Z,117.77
2019-03-29T05:19:44.529Z,115.28
2019-03-29T05:22:13.289Z,117.77
2019-03-29T05:24:43.076Z,113.47
2019-03-29T05:27:12.814Z,113.32
2019-03-29T05:29:42.566Z,115.42
2019-03-29T05:32:12.314Z,115.28
2019-03-29T05:34:42.052Z,118.45
2019-03-29T05:37:11.841Z,124.72
2019-03-29T05:39:41.567Z,125.92
2019-03-29T05:42:11.318Z,129.30
2019-03-29T05:44:41.090Z,131.73
2019-03-29T05:47:10.794Z,136.80
2019-03-29T05:49:40.578Z,142.32
2019-03-29T05:52:10.327Z,142.98
2019-03-29T05:54:40.126Z,179.40
2019-03-29T05:57:09.869Z,200.60
2019-03-29T05:59:39.620Z,233.05
2019-03-29T06:02:20.119Z,291.47
2019-03-29T06:04:49.894Z,214.80
2019-03-29T06:07:19.653Z,276.05
2019-03-29T06:09:49.403Z,267.85
2019-03-29T06:12:19.178Z,342.57
2019-03-29T06:14:48.930Z,279.10
2019-03-29T06:17:18.714Z,254.43
2019-03-29T06:19:48.458Z,267.85
2019-03-29T06:22:18.275Z,250.62
2019-03-29T06:24:48.015Z,351.88
2019-03-29T06:27:17.766Z,272.63
2019-03-29T06:29:47.503Z,264.25
2019-03-29T06:32:17.249Z,232.22
2019-03-29T06:34:47.001Z,255.22
2019-03-29T06:37:19.058Z,259.37
2019-03-29T06:39:50.135Z,228.15
2019-03-29T06:42:19.874Z,228.37
2019-03-29T06:44:49.624Z,205.70
2019-03-29T06:47:20.374Z,203.15
2019-03-29T06:49:50.131Z,190.85
2019-03-29T06:52:19.905Z,201.70
2019-03-29T06:54:49.654Z,204.80
2019-03-29T06:57:19.410Z,213.70
2019-03-29T06:59:49.157Z,217.50
2019-03-29T07:02:18.891Z,194.72
2019-03-29T07:04:48.687Z,195.45
2019-03-29T07:07:18.427Z,175.45
2019-03-29T07:09:49.219Z,173.22
2019-03-29T07:12:18.998Z,163.80
2019-03-29T07:14:48.739Z,167.43
2019-03-29T07:17:18.497Z,166.90
2019-03-29T07:19:48.239Z,174.47
2019-03-29T07:22:18.153Z,168.32
2019-03-29T07:24:47.895Z,169.70
2019-03-29T07:27:17.643Z,181.80
2019-03-29T07:29:47.399Z,189.62
2019-03-29T07:32:17.168Z,181.37
2019-03-29T07:34:49.114Z,176.72
2019-03-29T07:37:18.333Z,178.87
2019-03-29T07:39:48.079Z,173.25
2019-03-29T07:42:17.854Z,173.45
2019-03-29T07:44:47.605Z,167.55
2019-03-29T07:47:17.346Z,157.18
2019-03-29T07:49:47.103Z,160.55
2019-03-29T07:52:16.850Z,158.27
2019-03-29T07:54:46.645Z,163.55
2019-03-29T07:57:16.386Z,158.75
2019-03-29T07:59:46.538Z,156.47
2019-03-29T08:02:16.294Z,151.65
2019-03-29T08:04:46.616Z,145.20
2019-03-29T08:07:26.555Z,149.80
2019-03-29T08:09:47.926Z,149.50
2019-03-29T08:12:17.689Z,147.30
2019-03-29T08:14:47.401Z,142.57
2019-03-29T08:17:17.162Z,145.92
2019-03-29T08:19:46.970Z,133.75
2019-03-29T08:22:16.687Z,126.50
2019-03-29T08:24:46.388Z,132.27
2019-03-29T08:27:16.207Z,112.20
2019-03-29T08:29:46.246Z,109.60
2019-03-29T08:32:16.014Z,112.28
2019-03-29T08:34:45.765Z,113.72
2019-03-29T08:37:15.506Z,104.73
2019-03-29T08:39:45.238Z,99.10
2019-03-29T08:42:18.265Z,99.42
2019-03-29T08:44:46.373Z,104.10
2019-03-29T08:47:16.110Z,84.28
2019-03-29T08:49:45.883Z,75.03
2019-03-29T08:52:15.622Z,79.03
2019-03-29T08:54:45.341Z,73.90
2019-03-29T08:57:15.131Z,73.83
2019-03-29T08:59:44.863Z,77.92
2019-03-29T09:02:14.602Z,79.35
2019-03-29T09:04:44.654Z,68.35
2019-03-29T09:07:14.391Z,72.42
2019-03-29T09:09:46.355Z,77.87
2019-03-29T09:12:16.138Z,75.50
2019-03-29T09:14:45.921Z,83.85
2019-03-29T09:17:15.658Z,97.50
2019-03-29T09:19:45.404Z,93.52
2019-03-29T09:22:16.165Z,85.05
2019-03-29T09:24:45.952Z,83.17
2019-03-29T09:27:15.684Z,85.45
2019-03-29T09:29:45.427Z,86.65
2019-03-29T09:32:15.169Z,91.75
2019-03-29T09:34:44.902Z,91.02
2019-03-29T09:37:14.694Z,89.83
2019-03-29T09:39:44.429Z,79.95
2019-03-29T09:42:27.768Z,80.67
2019-03-29T09:44:45.567Z,69.97
2019-03-29T09:47:15.360Z,62.33
2019-03-29T09:49:45.123Z,66.63
2019-03-29T09:52:14.931Z,66.07
2019-03-29T09:54:44.676Z,62.20
2019-03-29T09:57:15.598Z,65.78
2019-03-29T09:59:45.619Z,63.08
2019-03-29T10:02:15.382Z,64.62
2019-03-29T10:04:45.164Z,62.45
2019-03-29T10:07:14.889Z,60.88
2019-03-29T10:09:44.637Z,61.80
2019-03-29T10:12:15.389Z,55.45
2019-03-29T10:14:45.124Z,46.28
2019-03-29T10:17:14.902Z,61.15
2019-03-29T10:19:44.734Z,58.70
2019-03-29T10:22:14.482Z,44.33
2019-03-29T10:24:44.228Z,23.32
2019-03-29T10:27:13.990Z,36.05
2019-03-29T10:29:43.879Z,29.32
2019-03-29T10:32:13.626Z,43.13
2019-03-29T10:34:43.378Z,45.45
2019-03-29T10:37:13.146Z,37.03
2019-03-29T10:39:42.859Z,34.98
2019-03-29T10:42:12.647Z,37.30
2019-03-29T10:44:42.386Z,37.30
2019-03-29T10:47:12.198Z,37.60
2019-03-29T10:49:41.940Z,36.75
2019-03-29T10:52:11.683Z,30.25
2019-03-29T10:54:41.415Z,34.88
2019-03-29T10:57:12.145Z,27.00
2019-03-29T10:59:41.930Z,29.30
2019-03-29T11:02:11.668Z,32.65
2019-03-29T11:04:41.415Z,30.08
2019-03-29T11:07:11.160Z,30.87
2019-03-29T11:09:40.881Z,27.32
2019-03-29T11:12:10.670Z,27.52
2019-03-29T11:14:40.402Z,25.08
2019-03-29T11:17:10.181Z,29.05
2019-03-29T11:19:39.926Z,34.43
2019-03-29T11:22:09.690Z,30.62
2019-03-29T11:24:39.426Z,29.55
2019-03-29T11:27:09.163Z,27.80
2019-03-29T11:29:38.950Z,27.40
2019-03-29T11:32:08.723Z,30.30
2019-03-29T11:34:38.487Z,28.23
2019-03-29T11:37:08.234Z,30.12
2019-03-29T11:39:37.970Z,32.55
2019-03-29T11:42:07.774Z,29.30
2019-03-29T11:44:37.504Z,27.60
2019-03-29T11:47:07.375Z,32.05
2019-03-29T11:49:37.110Z,30.57
2019-03-29T11:52:06.894Z,37.03
2019-03-29T11:54:36.650Z,34.60
2019-03-29T11:57:06.406Z,34.27
2019-03-29T11:59:36.172Z,35.58
2019-03-29T12:02:05.908Z,35.38
2019-03-29T12:04:35.723Z,35.15
2019-03-29T12:07:05.461Z,39.67
2019-03-29T12:09:35.233Z,32.93
2019-03-29T12:12:04.963Z,34.58
2019-03-29T12:14:34.703Z,33.70
2019-03-29T12:17:04.449Z,35.40
2019-03-29T12:19:34.246Z,36.20
2019-03-29T12:22:03.998Z,39.60
2019-03-29T12:24:33.738Z,52.35
2019-03-29T12:27:04.690Z,38.23
2019-03-29T12:29:35.437Z,40.85
2019-03-29T12:32:05.336Z,40.65
2019-03-29T12:34:35.069Z,44.23
2019-03-29T12:37:04.846Z,49.20
2019-03-29T12:39:34.595Z,43.02
2019-03-29T12:42:04.331Z,41.40
2019-03-29T12:44:34.080Z,47.03
2019-03-29T12:47:03.861Z,40.12
2019-03-29T12:49:33.617Z,43.65
2019-03-29T12:52:03.369Z,39.55
2019-03-29T12:54:33.107Z,42.88
